createdAt,value
2023-05-11T00:02:00.068Z,0.63
2023-05-11T00:06:03.849Z,1.58
2023-05-11T00:10:11.900Z,0.70
2023-05-11T00:14:14.828Z,0.68
2023-05-11T00:26:28.860Z,0.90
2023-05-11T00:30:32.693Z,0.95
2023-05-11T00:34:36.362Z,0.20
2023-05-11T00:38:41.446Z,0.20
2023-05-11T00:42:46.535Z,0.73
2023-05-11T00:46:49.989Z,1.85
2023-05-11T00:50:53.502Z,0.43
2023-05-11T00:54:57.285Z,0.75
2023-05-11T00:59:02.826Z,2.70
2023-05-11T01:03:07.553Z,0.93
2023-05-11T01:07:15.721Z,0.70
2023-05-11T01:11:27.018Z,0.90
2023-05-11T01:15:38.726Z,0.77
2023-05-11T01:19:46.819Z,2.97
2023-05-11T01:24:28.803Z,0.68
2023-05-11T01:28:52.149Z,5.82
2023-05-11T01:33:01.355Z,0.98
2023-05-11T01:37:11.014Z,0.47
2023-05-11T01:41:18.285Z,0.60
2023-05-11T01:45:24.086Z,0.60
2023-05-11T01:49:31.163Z,0.82
2023-05-11T01:53:38.831Z,3.40
2023-05-11T01:57:42.491Z,1.65
2023-05-11T02:01:46.002Z,0.35
2023-05-11T02:05:52.597Z,0.60
2023-05-11T02:09:58.409Z,0.63
2023-05-11T02:14:03.375Z,0.82
2023-05-11T02:18:09.259Z,0.50
2023-05-11T02:22:14.756Z,1.40
2023-05-11T02:26:18.480Z,0.52
2023-05-11T02:30:22.246Z,0.75
2023-05-11T02:34:28.107Z,4.75
2023-05-11T02:38:35.920Z,0.57
2023-05-11T02:42:44.140Z,1.02
2023-05-11T02:46:51.719Z,1.13
2023-05-11T02:50:57.773Z,0.68
2023-05-11T02:55:04.876Z,1.00
2023-05-11T02:59:08.262Z,1.20
2023-05-11T03:03:12.476Z,0.35
2023-05-11T03:07:15.888Z,0.73
2023-05-11T03:11:22.701Z,1.63
2023-05-11T03:15:26.656Z,2.40
2023-05-11T03:19:31.240Z,0.45
2023-05-11T03:23:37.713Z,1.73
2023-05-11T03:27:44.269Z,0.40
2023-05-11T03:31:49.636Z,0.82
2023-05-11T03:35:56.032Z,0.77
2023-05-11T03:40:01.860Z,1.13
2023-05-11T03:44:09.954Z,2.75
2023-05-11T03:48:15.912Z,0.68
2023-05-11T03:52:20.559Z,0.77
2023-05-11T03:56:23.750Z,1.67
2023-05-11T04:00:28.724Z,1.10
2023-05-11T04:04:32.987Z,1.08
2023-05-11T04:08:36.579Z,1.35
2023-05-11T04:12:40.201Z,0.98
2023-05-11T04:16:45.640Z,1.90
2023-05-11T04:20:48.902Z,1.05
2023-05-11T04:24:52.406Z,0.60
2023-05-11T04:28:56.345Z,2.88
2023-05-11T04:33:01.294Z,0.77
2023-05-11T04:37:07.515Z,1.15
2023-05-11T04:41:12.590Z,0.85
2023-05-11T04:45:16.200Z,3.13
2023-05-11T04:49:20.935Z,4.55
2023-05-11T04:53:24.318Z,0.93
2023-05-11T04:57:27.909Z,0.88
2023-05-11T05:01:31.016Z,0.70
2023-05-11T05:05:36.301Z,1.33
2023-05-11T05:09:39.410Z,1.35
2023-05-11T05:13:43.091Z,0.45
2023-05-11T05:17:46.470Z,2.67
2023-05-11T05:21:51.449Z,2.42
2023-05-11T05:25:54.837Z,1.52
2023-05-11T05:29:58.435Z,1.42
2023-05-11T05:34:01.705Z,1.55
2023-05-11T05:38:06.580Z,1.75
2023-05-11T05:42:09.818Z,0.75
2023-05-11T05:46:13.607Z,0.70
2023-05-11T05:50:17.768Z,1.60
2023-05-11T05:54:23.125Z,1.40
2023-05-11T05:58:26.385Z,1.67
2023-05-11T06:02:30.215Z,0.65
2023-05-11T06:06:33.599Z,4.65
2023-05-11T06:10:38.733Z,2.15
2023-05-11T06:14:43.295Z,1.90
2023-05-11T06:18:48.330Z,1.42
2023-05-11T06:22:52.080Z,1.92
2023-05-11T06:26:57.487Z,2.40
2023-05-11T06:31:01.613Z,2.03
2023-05-11T06:35:05.036Z,2.33
2023-05-11T06:39:08.522Z,2.17
2023-05-11T06:43:13.633Z,2.58
2023-05-11T06:47:17.088Z,1.45
2023-05-11T06:51:22.046Z,2.20
2023-05-11T06:55:25.597Z,2.03
2023-05-11T06:59:30.744Z,2.47
2023-05-11T07:03:34.397Z,2.03
2023-05-11T07:07:37.967Z,6.55
2023-05-11T07:11:41.639Z,3.65
2023-05-11T07:15:46.496Z,7.28
2023-05-11T07:19:52.466Z,9.07
2023-05-11T07:23:55.884Z,5.60
2023-05-11T07:27:59.385Z,3.28
2023-05-11T07:32:04.518Z,3.95
2023-05-11T07:36:08.794Z,5.18
2023-05-11T07:40:12.834Z,8.65
2023-05-11T07:44:17.512Z,3.05
2023-05-11T07:48:22.616Z,3.42
2023-05-11T07:52:26.810Z,5.05
2023-05-11T07:56:30.963Z,7.63
2023-05-11T08:00:34.408Z,8.60
2023-05-11T08:04:39.632Z,6.93
2023-05-11T08:08:42.866Z,8.70
2023-05-11T08:12:46.484Z,9.07
2023-05-11T08:16:50.886Z,12.32
2023-05-11T08:20:55.647Z,9.23
2023-05-11T08:24:59.280Z,10.93
2023-05-11T08:29:03.136Z,8.63
2023-05-11T08:33:20.138Z,10.82
2023-05-11T08:37:31.347Z,9.30
2023-05-11T08:41:34.697Z,14.10
2023-05-11T08:45:40.972Z,9.23
2023-05-11T08:49:44.879Z,14.75
2023-05-11T08:53:50.139Z,8.65
2023-05-11T08:57:55.486Z,5.95
2023-05-11T09:01:59.780Z,8.13
2023-05-11T09:06:07.521Z,9.00
2023-05-11T09:10:13.994Z,6.60
2023-05-11T09:14:17.632Z,7.15
2023-05-11T09:18:21.176Z,8.07
2023-05-11T09:22:24.277Z,7.55
2023-05-11T09:26:29.953Z,5.28
2023-05-11T09:30:36.160Z,6.60
2023-05-11T09:34:43.112Z,10.15
2023-05-11T09:38:47.373Z,5.28
2023-05-11T09:42:52.340Z,5.55
2023-05-11T09:47:13.379Z,6.05
2023-05-11T09:51:21.407Z,3.88
2023-05-11T09:55:25.441Z,4.25
2023-05-11T09:59:51.283Z,5.00
2023-05-11T10:04:02.672Z,5.82
2023-05-11T10:08:09.831Z,7.07
2023-05-11T10:12:14.653Z,5.60
2023-05-11T10:16:21.943Z,5.38
2023-05-11T10:20:26.320Z,3.58
2023-05-11T10:24:30.244Z,6.22
2023-05-11T10:28:33.768Z,11.10
2023-05-11T10:32:39.451Z,6.95
2023-05-11T10:36:43.358Z,5.88
2023-05-11T10:40:49.110Z,5.35
2023-05-11T10:45:23.589Z,6.65
2023-05-11T10:49:51.720Z,7.47
2023-05-11T10:54:07.996Z,6.78
2023-05-11T10:58:17.274Z,8.93
2023-05-11T11:02:21.139Z,6.28
2023-05-11T11:06:26.154Z,7.32
2023-05-11T11:10:35.212Z,4.50
2023-05-11T11:14:58.306Z,5.25
2023-05-11T11:19:46.298Z,8.13
2023-05-11T11:23:51.470Z,4.78
2023-05-11T11:28:00.622Z,5.82
2023-05-11T11:32:29.231Z,6.85
2023-05-11T11:37:04.326Z,6.95
2023-05-11T11:41:11.711Z,8.05
2023-05-11T11:45:33.348Z,6.35
2023-05-11T11:49:40.605Z,7.38
2023-05-11T11:54:09.289Z,6.75
2023-05-11T11:58:14.756Z,9.75
2023-05-11T12:02:18.500Z,9.57
2023-05-11T12:06:24.451Z,8.32
2023-05-11T12:10:30.246Z,7.10
2023-05-11T12:14:36.617Z,9.82
2023-05-11T12:18:40.099Z,8.48
2023-05-11T12:22:45.105Z,7.72
2023-05-11T12:26:48.395Z,10.10
2023-05-11T12:30:59.100Z,11.38
2023-05-11T12:35:06.607Z,10.27
2023-05-11T12:39:10.465Z,10.93
2023-05-11T12:43:19.360Z,11.00
2023-05-11T12:47:24.446Z,9.60
2023-05-11T12:51:47.420Z,9.38
2023-05-11T12:55:59.475Z,9.30
2023-05-11T13:00:13.321Z,7.28
2023-05-11T13:04:18.770Z,7.35
2023-05-11T13:08:22.456Z,10.27
2023-05-11T13:12:26.381Z,11.48
2023-05-11T13:16:32.235Z,8.02
2023-05-11T13:20:38.186Z,6.95
2023-05-11T13:24:41.619Z,4.50
2023-05-11T13:28:50.231Z,2.92
2023-05-11T13:32:58.583Z,4.97
2023-05-11T13:37:03.676Z,3.53
2023-05-11T13:41:07.734Z,4.70
2023-05-11T13:45:12.525Z,5.93
2023-05-11T13:49:16.013Z,5.15
2023-05-11T13:53:20.825Z,3.58
2023-05-11T13:57:24.836Z,5.40
2023-05-11T14:01:28.376Z,4.90
2023-05-11T14:05:31.691Z,5.13
2023-05-11T14:09:37.410Z,6.30
2023-05-11T14:13:40.984Z,3.47
2023-05-11T14:17:44.701Z,5.47
2023-05-11T14:21:48.864Z,4.43
2023-05-11T14:25:53.694Z,4.95
2023-05-11T14:29:57.210Z,7.50
2023-05-11T14:34:00.151Z,4.40
2023-05-11T14:38:05.001Z,3.63
2023-05-11T14:42:10.392Z,3.72
2023-05-11T14:46:14.463Z,3.50
2023-05-11T14:50:18.233Z,2.83
2023-05-11T14:54:21.717Z,3.95
2023-05-11T14:58:26.486Z,5.10
2023-05-11T15:02:30.765Z,4.35
2023-05-11T15:06:34.209Z,4.22
2023-05-11T15:10:40.606Z,8.05
2023-05-11T15:14:45.437Z,7.45
2023-05-11T15:18:48.866Z,3.90
2023-05-11T15:22:52.421Z,3.40
2023-05-11T15:26:58.448Z,6.72
2023-05-11T15:31:03.562Z,4.07
2023-05-11T15:35:07.832Z,4.88
2023-05-11T15:39:11.061Z,6.18
2023-05-11T15:43:14.992Z,4.00
2023-05-11T15:47:20.225Z,6.40
2023-05-11T15:51:23.765Z,4.75
2023-05-11T15:55:27.109Z,4.00
2023-05-11T15:59:32.974Z,4.28
2023-05-11T16:03:38.000Z,5.63
2023-05-11T16:07:41.647Z,5.18
2023-05-11T16:11:46.173Z,5.03
2023-05-11T16:15:50.106Z,4.93
2023-05-11T16:19:55.114Z,4.05
2023-05-11T16:23:59.760Z,4.82
2023-05-11T16:28:04.087Z,4.80
2023-05-11T16:32:08.320Z,4.45
2023-05-11T16:36:13.609Z,6.75
2023-05-11T16:40:19.934Z,7.10
2023-05-11T16:44:23.418Z,3.70
2023-05-11T16:48:28.032Z,5.72
2023-05-11T16:52:33.812Z,5.28
2023-05-11T16:56:38.058Z,4.25
2023-05-11T17:00:41.453Z,5.03
2023-05-11T17:04:45.557Z,6.82
2023-05-11T17:08:49.931Z,7.63
2023-05-11T17:12:53.282Z,7.50
2023-05-11T17:16:56.316Z,6.28
2023-05-11T17:20:59.964Z,9.60
2023-05-11T17:25:06.596Z,10.40
2023-05-11T17:29:10.451Z,5.97
2023-05-11T17:33:14.294Z,7.50
2023-05-11T17:37:30.593Z,11.23
2023-05-11T17:41:35.816Z,15.25
2023-05-11T17:45:41.763Z,5.30
2023-05-11T17:49:45.318Z,8.75
2023-05-11T17:53:49.929Z,9.60
2023-05-11T17:57:55.202Z,9.65
2023-05-11T18:01:59.320Z,7.15
2023-05-11T18:06:04.920Z,6.45
2023-05-11T18:10:10.084Z,7.70
2023-05-11T18:14:15.423Z,6.95
2023-05-11T18:18:20.056Z,7.78
2023-05-11T18:22:25.376Z,7.43
2023-05-11T18:26:29.351Z,7.47
2023-05-11T18:30:36.417Z,6.43
2023-05-11T18:34:41.486Z,11.75
2023-05-11T18:38:45.640Z,6.40
2023-05-11T18:42:49.217Z,7.30
2023-05-11T18:46:54.082Z,8.02
2023-05-11T18:50:58.147Z,8.93
2023-05-11T18:55:01.747Z,8.23
2023-05-11T18:59:06.377Z,7.32
2023-05-11T19:03:11.164Z,8.00
2023-05-11T19:07:15.479Z,7.63
2023-05-11T19:11:19.984Z,8.15
2023-05-11T19:15:24.034Z,6.47
2023-05-11T19:19:29.291Z,6.85
2023-05-11T19:23:35.670Z,9.10
2023-05-11T19:27:41.069Z,5.03
2023-05-11T19:31:45.346Z,10.00
2023-05-11T19:35:50.453Z,7.85
2023-05-11T19:39:57.105Z,9.07
2023-05-11T19:44:06.155Z,8.27
2023-05-11T19:48:09.851Z,6.63
2023-05-11T19:52:14.729Z,8.95
2023-05-11T19:56:18.257Z,7.03
2023-05-11T20:00:25.254Z,7.82
2023-05-11T20:04:28.809Z,5.68
2023-05-11T20:08:41.307Z,10.93
2023-05-11T20:12:44.534Z,10.15
2023-05-11T20:16:49.560Z,10.65
2023-05-11T20:20:53.777Z,9.98
2023-05-11T20:24:59.316Z,7.97
2023-05-11T20:29:03.301Z,7.40
2023-05-11T20:37:13.185Z,6.32
2023-05-11T20:41:17.799Z,8.02
2023-05-11T20:45:22.293Z,8.00
2023-05-11T20:49:38.225Z,6.88
2023-05-11T20:53:43.483Z,5.85
2023-05-11T20:57:48.652Z,7.25
2023-05-11T21:01:52.149Z,8.35
2023-05-11T21:05:56.303Z,5.25
2023-05-11T21:10:01.117Z,6.32
2023-05-11T21:14:05.950Z,6.22
2023-05-11T21:18:10.003Z,7.35
2023-05-11T21:22:13.442Z,6.45
2023-05-11T21:26:16.824Z,12.93
2023-05-11T21:30:21.822Z,5.95
2023-05-11T21:34:25.501Z,5.95
2023-05-11T21:38:28.695Z,7.95
2023-05-11T21:42:35.290Z,7.63
2023-05-11T21:46:39.931Z,7.18
2023-05-11T21:50:43.804Z,7.82
2023-05-11T21:54:47.084Z,9.27
2023-05-11T21:58:50.793Z,8.55
2023-05-11T22:02:55.566Z,10.23
2023-05-11T22:07:01.579Z,10.25
2023-05-11T22:11:05.356Z,8.23
2023-05-11T22:15:10.176Z,6.28
2023-05-11T22:19:15.076Z,6.07
2023-05-11T22:23:19.516Z,14.65
2023-05-11T22:27:23.425Z,7.35
2023-05-11T22:31:27.722Z,7.18
2023-05-11T22:35:32.711Z,5.55
2023-05-11T22:39:36.136Z,12.65
2023-05-11T22:43:39.820Z,5.72
2023-05-11T22:47:43.568Z,10.32
2023-05-11T22:51:49.923Z,12.45
2023-05-11T22:55:53.648Z,8.20
2023-05-11T22:59:57.513Z,5.90
2023-05-11T23:04:01.273Z,3.80
2023-05-11T23:08:05.893Z,5.90
2023-05-11T23:12:09.840Z,6.93
2023-05-11T23:16:15.818Z,7.25
2023-05-11T23:20:19.153Z,7.32
2023-05-11T23:24:24.881Z,7.18
2023-05-11T23:28:28.669Z,8.48
2023-05-11T23:32:31.913Z,7.95
2023-05-11T23:36:35.240Z,6.65
2023-05-11T23:40:40.597Z,8.10
2023-05-11T23:44:44.072Z,18.60
2023-05-11T23:48:47.596Z,7.97
2023-05-11T23:52:51.252Z,7.03
2023-05-11T23:56:56.860Z,10.35
